Terminal Aerodrome Forecast
Issued by NWS Green Bay, WI

Home | Current Version | Previous Version | Graphics & Text | Print | Product List | Glossary On
Versions: 1 2 3 4 5 6 7 8 9 10 11 12 13 14 15 16 17 18 19 20 21 22 23 24 25 26 27 28 29 30 31 32 33 34 35 36 37 38 39 40 41 42 43 44
749
FTUS43 KGRB 241737
TAFGRB
TAF
KGRB 241737Z 2418/2518 04012G19KT P6SM SCT005 OVC008
      TEMPO 2418/2420 -SHRA BKN005
     FM242000 04012G18KT P6SM SCT008 OVC015
      TEMPO 2420/2422 -SHRA BKN008
     FM250100 03011KT P6SM OVC019
     FM250800 01008KT P6SM BKN016
     FM251600 03010G15KT P6SM BKN023=

USA.gov is the U.S. government's official web portal to all federal, state and local government web resources and services.